createdAt,value
2023-04-13T00:01:11.101Z,1.20
2023-04-13T00:03:39.459Z,1.30
2023-04-13T00:06:11.349Z,1.10
2023-04-13T00:08:42.875Z,1.20
2023-04-13T00:11:10.966Z,1.20
2023-04-13T00:13:41.277Z,1.30
2023-04-13T00:16:12.494Z,1.10
2023-04-13T00:18:40.936Z,1.30
2023-04-13T00:21:09.347Z,1.20
2023-04-13T00:23:37.084Z,1.25
2023-04-13T00:26:05.042Z,1.30
2023-04-13T00:28:33.182Z,1.30
2023-04-13T00:31:00.939Z,1.20
2023-04-13T00:33:30.415Z,1.10
2023-04-13T00:35:58.090Z,1.20
2023-04-13T00:38:29.801Z,1.20
2023-04-13T00:40:57.605Z,1.10
2023-04-13T00:43:26.188Z,1.20
2023-04-13T00:45:54.226Z,1.30
2023-04-13T00:48:23.410Z,1.30
2023-04-13T00:50:52.513Z,1.30
2023-04-13T00:53:20.588Z,1.20
2023-04-13T00:55:48.658Z,1.30
2023-04-13T00:58:16.379Z,1.20
2023-04-13T01:00:44.149Z,1.20
2023-04-13T01:03:12.559Z,1.20
2023-04-13T01:05:50.427Z,1.10
2023-04-13T01:08:26.036Z,1.20
2023-04-13T01:10:57.991Z,1.20
2023-04-13T01:13:30.884Z,1.25
2023-04-13T01:16:04.210Z,1.17
2023-04-13T01:18:34.531Z,1.40
2023-04-13T01:21:04.615Z,1.10
2023-04-13T01:23:46.068Z,1.30
2023-04-13T01:26:14.906Z,1.20
2023-04-13T01:28:44.163Z,1.20
2023-04-13T01:31:12.416Z,1.20
2023-04-13T01:33:41.643Z,1.20
2023-04-13T01:36:11.472Z,1.30
2023-04-13T01:38:39.168Z,1.33
2023-04-13T01:41:08.777Z,1.30
2023-04-13T01:43:37.450Z,1.20
2023-04-13T01:46:10.134Z,1.25
2023-04-13T01:48:40.508Z,1.17
2023-04-13T01:51:10.269Z,1.27
2023-04-13T01:53:39.530Z,1.20
2023-04-13T01:56:07.979Z,1.20
2023-04-13T01:58:36.342Z,1.30
2023-04-13T02:01:07.840Z,1.10
2023-04-13T02:03:38.764Z,1.20
2023-04-13T02:06:07.382Z,1.20
2023-04-13T02:08:37.038Z,1.10
2023-04-13T02:11:05.337Z,1.30
2023-04-13T02:13:33.117Z,1.30
2023-04-13T02:16:01.478Z,1.20
2023-04-13T02:18:29.358Z,1.13
2023-04-13T02:21:03.307Z,1.10
2023-04-13T02:23:32.018Z,1.30
2023-04-13T02:25:59.691Z,1.10
2023-04-13T02:28:27.633Z,1.30
2023-04-13T02:30:55.889Z,1.10
2023-04-13T02:33:24.704Z,1.27
2023-04-13T02:35:52.514Z,1.15
2023-04-13T02:38:21.676Z,1.10
2023-04-13T02:40:49.393Z,1.20
2023-04-13T02:43:17.592Z,1.20
2023-04-13T02:45:45.437Z,1.15
2023-04-13T02:48:13.147Z,1.10
2023-04-13T02:50:40.845Z,1.20
2023-04-13T02:53:08.921Z,1.25
2023-04-13T02:55:38.925Z,1.10
2023-04-13T02:58:06.697Z,1.30
2023-04-13T03:00:34.691Z,1.30
2023-04-13T03:03:03.431Z,1.27
2023-04-13T03:05:32.195Z,1.10
2023-04-13T03:08:00.210Z,1.30
2023-04-13T03:10:27.911Z,1.20
2023-04-13T03:12:57.043Z,1.30
2023-04-13T03:15:24.965Z,1.30
2023-04-13T03:17:52.987Z,1.20
2023-04-13T03:20:23.701Z,1.35
2023-04-13T03:22:51.605Z,1.08
2023-04-13T03:25:19.328Z,1.20
2023-04-13T03:27:47.088Z,1.20
2023-04-13T03:30:16.195Z,1.20
2023-04-13T03:32:43.893Z,1.30
2023-04-13T03:35:12.081Z,1.20
2023-04-13T03:37:42.814Z,1.13
2023-04-13T03:40:11.534Z,1.10
2023-04-13T03:42:39.416Z,1.20
2023-04-13T03:45:07.807Z,1.20
2023-04-13T03:47:38.796Z,1.30
2023-04-13T03:50:07.699Z,1.25
2023-04-13T03:52:35.677Z,1.30
2023-04-13T03:55:03.580Z,1.35
2023-04-13T03:57:31.310Z,1.10
2023-04-13T03:59:59.067Z,1.30
2023-04-13T04:02:27.279Z,1.40
2023-04-13T04:04:56.619Z,1.20
2023-04-13T04:07:24.660Z,1.30
2023-04-13T04:09:52.369Z,1.20
2023-04-13T04:12:20.020Z,1.33
2023-04-13T04:14:47.705Z,1.27
2023-04-13T04:17:15.497Z,1.23
2023-04-13T04:19:43.189Z,1.10
2023-04-13T04:22:13.910Z,1.27
2023-04-13T04:24:42.418Z,1.25
2023-04-13T04:27:10.144Z,1.35
2023-04-13T04:29:38.163Z,1.30
2023-04-13T04:32:11.078Z,1.20
2023-04-13T04:34:40.890Z,1.30
2023-04-13T04:37:19.623Z,1.20
2023-04-13T04:39:49.788Z,1.30
2023-04-13T04:42:18.748Z,1.35
2023-04-13T04:44:49.803Z,1.30
2023-04-13T04:47:18.589Z,1.30
2023-04-13T04:49:46.488Z,1.25
2023-04-13T04:52:14.746Z,1.13
2023-04-13T04:54:42.475Z,1.30
2023-04-13T04:57:12.293Z,1.17
2023-04-13T04:59:40.927Z,1.30
2023-04-13T05:02:09.096Z,1.20
2023-04-13T05:04:37.004Z,1.30
2023-04-13T05:07:05.346Z,1.20
2023-04-13T05:09:33.022Z,1.30
2023-04-13T05:12:00.727Z,1.20
2023-04-13T05:14:29.853Z,1.30
2023-04-13T05:16:57.543Z,1.30
2023-04-13T05:19:25.257Z,1.38
2023-04-13T05:21:53.300Z,1.20
2023-04-13T05:24:21.009Z,1.30
2023-04-13T05:26:48.711Z,1.30
2023-04-13T05:29:16.376Z,1.30
2023-04-13T05:31:45.452Z,1.30
2023-04-13T05:34:13.259Z,1.30
2023-04-13T05:36:41.424Z,1.30
2023-04-13T05:39:10.772Z,1.25
2023-04-13T05:41:38.864Z,1.30
2023-04-13T05:44:06.839Z,1.10
2023-04-13T05:46:34.520Z,1.25
2023-04-13T05:49:05.408Z,1.30
2023-04-13T05:51:34.054Z,1.23
2023-04-13T05:54:01.825Z,1.25
2023-04-13T05:56:30.072Z,1.33
2023-04-13T05:58:57.883Z,1.30
2023-04-13T06:01:25.846Z,1.20
2023-04-13T06:03:54.087Z,1.20
2023-04-13T06:06:23.277Z,1.10
2023-04-13T06:08:52.982Z,1.20
2023-04-13T06:11:20.974Z,1.20
2023-04-13T06:13:48.641Z,1.30
2023-04-13T06:16:16.430Z,1.20
2023-04-13T06:18:44.194Z,1.10
2023-04-13T06:21:12.404Z,1.20
2023-04-13T06:23:41.482Z,1.15
2023-04-13T06:26:09.445Z,1.20
2023-04-13T06:28:37.164Z,1.20
2023-04-13T06:31:05.289Z,1.20
2023-04-13T06:33:33.785Z,1.15
2023-04-13T06:36:01.730Z,1.30
2023-04-13T06:38:29.469Z,1.30
2023-04-13T06:41:03.585Z,1.20
2023-04-13T06:43:31.550Z,1.27
2023-04-13T06:46:00.671Z,1.15
2023-04-13T06:48:30.272Z,1.20
2023-04-13T06:50:59.083Z,1.10
2023-04-13T06:53:27.226Z,1.13
2023-04-13T06:55:54.995Z,1.20
2023-04-13T06:58:24.030Z,1.10
2023-04-13T07:00:51.783Z,1.10
2023-04-13T07:03:19.724Z,1.10
2023-04-13T07:05:47.506Z,1.10
2023-04-13T07:08:15.351Z,1.20
2023-04-13T07:10:43.211Z,1.10
2023-04-13T07:13:11.092Z,1.10
2023-04-13T07:15:40.480Z,1.20
2023-04-13T07:18:08.400Z,1.00
2023-04-13T07:20:36.443Z,1.20
2023-04-13T07:23:04.143Z,1.10
2023-04-13T07:25:31.905Z,1.08
2023-04-13T07:27:59.575Z,1.30
2023-04-13T07:30:27.567Z,1.20
2023-04-13T07:32:56.693Z,1.10
2023-04-13T07:35:24.396Z,1.20
2023-04-13T07:37:53.337Z,1.10
2023-04-13T07:40:21.467Z,1.00
2023-04-13T07:42:51.266Z,1.10
2023-04-13T07:45:20.132Z,1.10
2023-04-13T07:47:47.984Z,1.00
2023-04-13T07:50:17.894Z,1.10
2023-04-13T07:52:45.873Z,1.10
2023-04-13T07:55:13.585Z,1.20
2023-04-13T07:57:41.554Z,1.05
2023-04-13T08:00:12.330Z,1.00
2023-04-13T08:02:40.210Z,1.00
2023-04-13T08:05:10.160Z,0.90
2023-04-13T08:07:39.393Z,1.20
2023-04-13T08:10:08.456Z,1.10
2023-04-13T08:12:36.623Z,1.10
2023-04-13T08:15:05.312Z,1.10
2023-04-13T08:17:33.999Z,1.10
2023-04-13T08:20:01.747Z,1.10
2023-04-13T08:22:29.564Z,1.02
2023-04-13T08:24:58.616Z,1.10
2023-04-13T08:27:26.335Z,1.20
2023-04-13T08:29:56.719Z,1.02
2023-04-13T08:32:24.479Z,1.10
2023-04-13T08:34:52.783Z,1.08
2023-04-13T08:37:20.977Z,1.20
2023-04-13T08:39:49.219Z,1.20
2023-04-13T08:42:19.687Z,0.90
2023-04-13T08:44:48.396Z,1.10
2023-04-13T08:47:16.196Z,1.10
2023-04-13T08:49:44.758Z,1.10
2023-04-13T08:52:14.426Z,1.10
2023-04-13T08:54:43.520Z,1.05
2023-04-13T08:57:13.608Z,1.20
2023-04-13T08:59:43.586Z,1.15
2023-04-13T09:02:11.998Z,1.05
2023-04-13T09:04:41.054Z,1.10
2023-04-13T09:07:09.359Z,1.00
2023-04-13T09:09:39.210Z,1.20
2023-04-13T09:12:07.173Z,1.20
2023-04-13T09:14:35.061Z,1.00
2023-04-13T09:17:06.772Z,1.10
2023-04-13T09:22:13.582Z,1.20
2023-04-13T09:24:41.518Z,1.10
2023-04-13T09:27:18.535Z,1.10
2023-04-13T09:29:50.543Z,1.20
2023-04-13T09:35:08.864Z,1.10
2023-04-13T09:37:37.676Z,1.00
2023-04-13T09:40:14.787Z,1.10
2023-04-13T09:42:45.169Z,1.23
2023-04-13T09:45:13.269Z,1.10
2023-04-13T09:47:42.625Z,1.10
2023-04-13T09:50:20.154Z,1.10
2023-04-13T09:52:47.983Z,1.10
2023-04-13T09:55:16.790Z,1.20
2023-04-13T09:57:44.882Z,1.20
2023-04-13T10:00:20.465Z,1.00
2023-04-13T10:02:51.623Z,1.00
2023-04-13T10:05:19.953Z,1.05
2023-04-13T10:07:48.688Z,0.90
2023-04-13T10:10:16.948Z,1.08
2023-04-13T10:12:47.555Z,1.20
2023-04-13T10:15:26.056Z,1.00
2023-04-13T10:18:05.207Z,1.15
2023-04-13T10:20:33.673Z,1.20
2023-04-13T10:23:01.374Z,1.10
2023-04-13T10:25:33.482Z,1.10
2023-04-13T10:28:02.346Z,1.00
2023-04-13T10:30:30.058Z,1.10
2023-04-13T10:33:06.571Z,1.05
2023-04-13T10:35:39.440Z,1.00
2023-04-13T10:38:10.648Z,1.20
2023-04-13T10:40:45.598Z,1.10
2023-04-13T10:43:13.509Z,1.20
2023-04-13T10:45:41.559Z,1.20
2023-04-13T10:48:21.166Z,1.20
2023-04-13T10:50:58.731Z,1.20
2023-04-13T10:53:30.388Z,1.20
2023-04-13T10:55:58.665Z,1.30
2023-04-13T10:58:30.008Z,1.30
2023-04-13T11:01:00.016Z,1.30
2023-04-13T11:03:29.844Z,1.20
2023-04-13T11:05:59.193Z,1.30
2023-04-13T11:08:28.109Z,1.20
2023-04-13T11:10:57.490Z,1.30
2023-04-13T11:13:26.671Z,1.23
2023-04-13T11:16:02.843Z,1.30
2023-04-13T11:18:32.166Z,1.30
2023-04-13T11:20:59.889Z,1.33
2023-04-13T11:23:27.592Z,1.40
2023-04-13T11:25:58.141Z,1.20
2023-04-13T11:28:37.193Z,1.10
2023-04-13T11:31:06.315Z,1.10
2023-04-13T11:33:37.789Z,1.13
2023-04-13T11:36:07.831Z,1.00
2023-04-13T11:38:35.629Z,1.20
2023-04-13T11:41:15.687Z,1.15
2023-04-13T11:43:46.192Z,1.30
2023-04-13T11:46:16.172Z,1.10
2023-04-13T11:48:45.621Z,1.10
2023-04-13T11:51:13.537Z,1.10
2023-04-13T11:53:41.667Z,1.10
2023-04-13T11:56:09.737Z,1.10
2023-04-13T11:58:38.857Z,1.10
2023-04-13T12:01:13.735Z,1.20
2023-04-13T12:06:17.599Z,1.10
2023-04-13T12:08:49.587Z,1.30
2023-04-13T12:11:41.549Z,1.30
2023-04-13T12:14:38.000Z,1.15
2023-04-13T12:17:26.254Z,1.30
2023-04-13T12:20:01.210Z,1.30
2023-04-13T12:22:49.672Z,1.23
2023-04-13T12:25:20.843Z,1.30
2023-04-13T12:27:50.806Z,1.30
2023-04-13T12:30:19.947Z,1.30
2023-04-13T12:32:48.563Z,1.20
2023-04-13T12:35:16.829Z,1.20
2023-04-13T12:37:46.559Z,1.30
2023-04-13T12:40:16.066Z,1.20
2023-04-13T12:42:44.724Z,1.10
2023-04-13T12:45:13.775Z,1.08
2023-04-13T12:47:42.005Z,1.23
2023-04-13T12:50:13.072Z,1.20
2023-04-13T12:52:43.209Z,1.20
2023-04-13T12:55:12.922Z,1.15
2023-04-13T12:57:40.670Z,1.20
2023-04-13T13:00:10.726Z,1.15
2023-04-13T13:02:39.345Z,1.20
2023-04-13T13:05:11.955Z,1.20
2023-04-13T13:07:39.814Z,1.30
2023-04-13T13:10:25.845Z,1.10
2023-04-13T13:12:57.583Z,1.20
2023-04-13T13:15:25.399Z,1.17
2023-04-13T13:17:53.158Z,1.13
2023-04-13T13:20:21.147Z,1.17
2023-04-13T13:22:48.844Z,1.10
2023-04-13T13:25:17.007Z,1.10
2023-04-13T13:30:16.880Z,1.13
2023-04-13T13:32:44.708Z,1.17
2023-04-13T13:35:12.506Z,1.10
2023-04-13T13:37:40.360Z,1.20
2023-04-13T13:40:13.228Z,1.20
2023-04-13T13:42:51.129Z,1.10
2023-04-13T13:45:21.780Z,1.20
2023-04-13T13:47:52.410Z,1.20
2023-04-13T13:50:21.897Z,1.20
2023-04-13T13:53:02.515Z,1.30
2023-04-13T13:55:31.639Z,1.20
2023-04-13T13:57:59.394Z,1.20
2023-04-13T14:00:29.078Z,1.20
2023-04-13T14:02:57.157Z,1.20
2023-04-13T14:05:25.355Z,1.20
2023-04-13T14:07:53.040Z,1.10
2023-04-13T14:10:21.063Z,1.10
2023-04-13T14:12:50.729Z,1.20
2023-04-13T14:15:19.119Z,1.05
2023-04-13T14:17:58.803Z,1.20
2023-04-13T14:20:38.459Z,1.20
2023-04-13T14:23:06.362Z,1.15
2023-04-13T14:25:34.065Z,1.20
2023-04-13T14:28:01.950Z,1.10
2023-04-13T14:30:31.766Z,1.10
2023-04-13T14:33:01.452Z,1.20
2023-04-13T14:35:29.260Z,1.17
2023-04-13T14:37:57.460Z,1.10
2023-04-13T14:40:25.352Z,1.10
2023-04-13T14:42:53.609Z,1.27
2023-04-13T14:45:22.130Z,1.15
2023-04-13T14:47:49.954Z,1.20
2023-04-13T14:50:19.452Z,1.20
2023-04-13T14:52:47.664Z,1.30
2023-04-13T14:55:16.391Z,1.20
2023-04-13T14:57:44.805Z,1.10
2023-04-13T15:00:21.842Z,1.10
2023-04-13T15:02:50.507Z,1.10
2023-04-13T15:05:19.879Z,1.10
2023-04-13T15:07:48.413Z,1.20
2023-04-13T15:10:16.354Z,1.20
2023-04-13T15:12:44.577Z,1.13
2023-04-13T15:15:13.250Z,1.25
2023-04-13T15:17:40.982Z,1.20
2023-04-13T15:20:10.745Z,1.00
2023-04-13T15:22:41.548Z,1.10
2023-04-13T15:25:09.867Z,1.15
2023-04-13T15:27:37.654Z,1.20
2023-04-13T15:30:06.982Z,1.17
2023-04-13T15:32:36.057Z,1.20
2023-04-13T15:35:03.895Z,1.23
2023-04-13T15:37:31.673Z,1.20
2023-04-13T15:40:01.380Z,1.20
2023-04-13T15:42:29.451Z,1.20
2023-04-13T15:44:57.102Z,1.10
2023-04-13T15:47:24.780Z,1.10
2023-04-13T15:49:52.480Z,1.20
2023-04-13T15:52:20.152Z,1.10
2023-04-13T15:54:47.977Z,1.20
2023-04-13T15:57:17.259Z,1.20
2023-04-13T15:59:45.125Z,1.20
2023-04-13T16:02:13.110Z,1.10
2023-04-13T16:04:41.282Z,1.13
2023-04-13T16:07:14.276Z,1.10
2023-04-13T16:09:44.033Z,1.15
2023-04-13T16:12:11.984Z,1.20
2023-04-13T16:14:41.883Z,1.00
2023-04-13T16:17:10.501Z,1.10
2023-04-13T16:19:39.582Z,1.00
2023-04-13T16:22:07.307Z,1.02
2023-04-13T16:24:35.043Z,1.10
2023-04-13T16:27:03.469Z,1.10
2023-04-13T16:29:32.394Z,1.13
2023-04-13T16:32:01.527Z,1.20
2023-04-13T16:34:30.102Z,1.10
2023-04-13T16:36:58.273Z,1.20
2023-04-13T16:39:26.437Z,1.20
2023-04-13T16:41:54.107Z,1.10
2023-04-13T16:44:21.798Z,1.10
2023-04-13T16:46:49.677Z,1.10
2023-04-13T16:49:18.799Z,1.10
2023-04-13T16:51:48.334Z,1.00
2023-04-13T16:54:17.935Z,1.30
2023-04-13T16:56:46.162Z,1.15
2023-04-13T16:59:13.869Z,1.10
2023-04-13T17:01:41.786Z,1.10
2023-04-13T17:04:09.656Z,1.10
2023-04-13T17:06:39.587Z,1.10
2023-04-13T17:09:07.948Z,1.10
2023-04-13T17:11:36.389Z,1.00
2023-04-13T17:14:04.085Z,1.10
2023-04-13T17:16:31.935Z,1.05
2023-04-13T17:18:59.907Z,1.10
2023-04-13T17:21:28.771Z,1.00
2023-04-13T17:23:58.463Z,1.10
2023-04-13T17:26:26.413Z,0.90
2023-04-13T17:28:54.090Z,1.00
2023-04-13T17:31:23.669Z,1.00
2023-04-13T17:33:51.384Z,1.00
2023-04-13T17:36:19.146Z,0.90
2023-04-13T17:38:47.330Z,1.00
2023-04-13T17:41:16.474Z,1.10
2023-04-13T17:43:44.161Z,1.00
2023-04-13T17:46:12.775Z,1.00
2023-04-13T17:48:40.809Z,0.95
2023-04-13T17:51:11.371Z,0.90
2023-04-13T17:53:39.591Z,0.98
2023-04-13T17:56:07.655Z,0.90
2023-04-13T17:58:36.698Z,1.00
2023-04-13T18:01:08.693Z,1.00
2023-04-13T18:06:05.387Z,1.10
2023-04-13T18:08:33.465Z,0.90
2023-04-13T18:11:01.187Z,0.90
2023-04-13T18:13:31.285Z,1.00
2023-04-13T18:16:00.410Z,1.00
2023-04-13T18:18:28.259Z,1.00
2023-04-13T18:20:56.256Z,0.90
2023-04-13T18:23:24.086Z,0.90
2023-04-13T18:25:52.726Z,0.93
2023-04-13T18:28:20.614Z,1.00
2023-04-13T18:30:48.343Z,1.10
2023-04-13T18:33:17.436Z,0.90
2023-04-13T18:35:46.213Z,1.00
2023-04-13T18:38:14.024Z,1.00
2023-04-13T18:40:41.766Z,1.00
2023-04-13T18:43:09.492Z,1.10
2023-04-13T18:45:37.250Z,0.90
2023-04-13T18:48:06.377Z,1.00
2023-04-13T18:50:35.515Z,1.00
2023-04-13T18:53:03.534Z,0.90
2023-04-13T18:55:31.322Z,1.00
2023-04-13T18:57:59.222Z,0.90
2023-04-13T19:00:27.453Z,0.93
2023-04-13T19:02:57.344Z,0.85
2023-04-13T19:05:25.998Z,1.00
2023-04-13T19:08:00.031Z,1.00
2023-04-13T19:10:28.828Z,0.90
2023-04-13T19:12:56.631Z,1.00
2023-04-13T19:15:28.171Z,1.00
2023-04-13T19:17:55.941Z,1.10
2023-04-13T19:20:25.046Z,1.00
2023-04-13T19:22:52.977Z,1.00
2023-04-13T19:25:22.916Z,1.00
2023-04-13T19:27:50.935Z,1.05
2023-04-13T19:30:19.890Z,1.00
2023-04-13T19:32:51.415Z,1.02
2023-04-13T19:35:21.637Z,0.90
2023-04-13T19:37:49.360Z,0.95
2023-04-13T19:40:18.933Z,0.85
2023-04-13T19:42:48.388Z,0.82
2023-04-13T19:45:16.543Z,1.00
2023-04-13T19:47:44.493Z,1.00
2023-04-13T19:50:14.172Z,1.00
2023-04-13T19:52:42.429Z,0.90
2023-04-13T19:55:18.079Z,1.00
2023-04-13T19:57:46.329Z,0.80
2023-04-13T20:00:21.133Z,1.00
2023-04-13T20:02:50.647Z,0.90
2023-04-13T20:05:20.047Z,1.00
2023-04-13T20:07:50.266Z,0.80
2023-04-13T20:10:18.216Z,1.00
2023-04-13T20:12:45.984Z,1.10
2023-04-13T20:15:15.785Z,1.00
2023-04-13T20:17:47.644Z,0.95
2023-04-13T20:20:15.887Z,0.90
2023-04-13T20:22:43.684Z,1.00
2023-04-13T20:25:11.420Z,1.05
2023-04-13T20:27:42.128Z,1.00
2023-04-13T20:30:10.932Z,0.98
2023-04-13T20:32:40.300Z,0.90
2023-04-13T20:35:15.367Z,1.00
2023-04-13T20:37:43.261Z,1.00
2023-04-13T20:40:11.712Z,1.00
2023-04-13T20:42:41.831Z,0.90
2023-04-13T20:45:10.931Z,1.00
2023-04-13T20:47:42.413Z,1.00
2023-04-13T20:50:11.873Z,1.00
2023-04-13T20:52:41.673Z,0.90
2023-04-13T20:55:11.822Z,1.00
2023-04-13T20:57:42.194Z,1.00
2023-04-13T21:00:15.508Z,0.90
2023-04-13T21:02:46.673Z,1.00
2023-04-13T21:05:14.742Z,1.00
2023-04-13T21:07:42.460Z,0.93
2023-04-13T21:10:12.023Z,0.90
2023-04-13T21:12:39.796Z,1.00
2023-04-13T21:15:08.999Z,1.00
2023-04-13T21:17:36.701Z,1.00
2023-04-13T21:20:10.121Z,1.00
2023-04-13T21:22:37.905Z,1.00
2023-04-13T21:25:06.237Z,1.10
2023-04-13T21:27:34.010Z,1.00
2023-04-13T21:30:01.988Z,1.08
2023-04-13T21:32:29.691Z,0.90
2023-04-13T21:34:57.561Z,0.90
2023-04-13T21:37:28.329Z,0.90
2023-04-13T21:39:56.174Z,1.10
2023-04-13T21:42:23.897Z,1.00
2023-04-13T21:44:52.076Z,0.98
2023-04-13T21:47:19.781Z,0.98
2023-04-13T21:49:47.506Z,1.00
2023-04-13T21:52:15.504Z,1.05
2023-04-13T21:54:44.520Z,1.00
2023-04-13T21:57:13.033Z,0.90
2023-04-13T21:59:41.294Z,1.00
2023-04-13T22:02:09.097Z,1.10
2023-04-13T22:04:37.098Z,1.00
2023-04-13T22:07:04.923Z,1.00
2023-04-13T22:09:32.575Z,1.00
2023-04-13T22:12:01.648Z,1.00
2023-04-13T22:14:29.416Z,0.95
2023-04-13T22:16:59.326Z,0.98
2023-04-13T22:19:26.968Z,1.00
2023-04-13T22:21:55.050Z,1.10
2023-04-13T22:24:22.693Z,0.90
2023-04-13T22:26:51.176Z,1.00
2023-04-13T22:29:20.408Z,1.00
2023-04-13T22:31:48.165Z,1.00
2023-04-13T22:34:15.858Z,0.90
2023-04-13T22:36:43.624Z,1.00
2023-04-13T22:39:11.334Z,0.90
2023-04-13T22:41:39.108Z,1.10
2023-04-13T22:44:07.071Z,0.90
2023-04-13T22:46:36.468Z,1.00
2023-04-13T22:49:04.324Z,1.00
2023-04-13T22:51:38.875Z,1.00
2023-04-13T22:54:06.766Z,1.00
2023-04-13T22:56:34.428Z,1.00
2023-04-13T22:59:03.090Z,1.00
2023-04-13T23:01:30.858Z,0.90
2023-04-13T23:04:00.022Z,0.90
2023-04-13T23:06:28.457Z,1.00
2023-04-13T23:08:56.484Z,1.10
2023-04-13T23:11:24.308Z,0.90
2023-04-13T23:13:55.081Z,1.00
2023-04-13T23:16:22.903Z,1.00
2023-04-13T23:18:50.684Z,1.10
2023-04-13T23:21:19.698Z,0.98
2023-04-13T23:23:47.501Z,1.17
2023-04-13T23:26:15.418Z,0.90
2023-04-13T23:28:43.133Z,1.00
2023-04-13T23:31:10.870Z,1.02
2023-04-13T23:33:38.932Z,0.90
2023-04-13T23:36:07.115Z,0.90
2023-04-13T23:38:36.311Z,1.08
2023-04-13T23:41:04.038Z,0.80
2023-04-13T23:43:32.485Z,1.00
2023-04-13T23:46:00.253Z,1.00
2023-04-13T23:48:28.355Z,1.00
2023-04-13T23:50:57.250Z,0.90
2023-04-13T23:53:24.962Z,1.00
2023-04-13T23:55:54.025Z,1.00
2023-04-13T23:58:21.693Z,1.00
